Time;durP1;ratioP1;P1;durP2;ratioP2;P2;SDS_P1;SDS_P2;PMS_P1;PMS_P2;Temp;Humidity;BMP_temperature;BMP_pressure;BME280_temperature;BME280_humidity;BME280_pressure;Samples;Min_cycle;Max_cycle;Signal;HPM_P1;HPM_P2
2023/09/02 00:00:10;;;;;;;1.25;1.15;;;;;14.10;94343.00;;;;7401928;19;20501;-79
2023/09/02 00:02:44;;;;;;;1.98;1.52;;;;;13.90;94339.00;;;;7398563;19;20699;-78
2023/09/02 00:05:14;;;;;;;4.35;1.70;;;;;13.90;94338.00;;;;7402485;19;20137;-78
2023/09/02 00:07:41;;;;;;;2.65;1.63;;;;;13.80;94345.00;;;;7400937;19;20145;-76
2023/09/02 00:10:22;;;;;;;2.38;1.73;;;;;13.70;94344.00;;;;7398672;19;20163;-78
2023/09/02 00:12:50;;;;;;;1.80;1.40;;;;;13.60;94345.00;;;;7402212;19;20148;-77
2023/09/02 00:15:25;;;;;;;4.53;2.13;;;;;13.50;94347.00;;;;7402332;19;20616;-77
2023/09/02 00:17:53;;;;;;;3.22;1.63;;;;;13.50;94348.00;;;;7401469;19;20216;-78
2023/09/02 00:20:27;;;;;;;2.63;1.60;;;;;13.40;94350.00;;;;7403234;19;20120;-76
2023/09/02 00:22:57;;;;;;;3.15;1.80;;;;;13.60;94354.00;;;;7400626;19;20125;-76
2023/09/02 00:25:30;;;;;;;2.55;1.67;;;;;13.70;94355.00;;;;7399006;19;20216;-76
2023/09/02 00:27:58;;;;;;;3.50;1.70;;;;;13.70;94355.00;;;;7400467;19;20137;-76
2023/09/02 00:30:33;;;;;;;3.03;1.75;;;;;13.70;94354.00;;;;7399974;19;20495;-76
2023/09/02 00:33:00;;;;;;;5.13;2.00;;;;;13.70;94349.00;;;;7400841;19;20121;-77
2023/09/02 00:35:34;;;;;;;2.50;1.60;;;;;13.70;94362.00;;;;7401027;19;20160;-77
2023/09/02 00:38:04;;;;;;;5.35;1.90;;;;;13.80;94357.00;;;;7398750;19;20173;-77
2023/09/02 00:40:45;;;;;;;4.38;1.92;;;;;13.80;94352.00;;;;7399635;19;20152;-77
2023/09/02 00:43:13;;;;;;;2.58;1.50;;;;;13.80;94353.00;;;;7401024;19;20165;-77
2023/09/02 00:45:50;;;;;;;4.78;1.80;;;;;13.80;94353.00;;;;7399702;19;20160;-77
2023/09/02 00:48:24;;;;;;;2.13;1.80;;;;;13.90;94348.00;;;;7399715;19;20137;-78
2023/09/02 00:50:58;;;;;;;3.38;1.65;;;;;13.90;94353.00;;;;7402134;19;20133;-78
2023/09/02 00:53:29;;;;;;;3.88;1.63;;;;;14.00;94351.00;;;;7399627;19;20148;-77
2023/09/02 00:56:03;;;;;;;6.63;2.03;;;;;14.00;94352.00;;;;7397965;19;20140;-77
2023/09/02 00:58:40;;;;;;;4.45;2.05;;;;;14.10;94351.00;;;;7400790;19;20144;-77
2023/09/02 01:01:17;;;;;;;5.18;2.05;;;;;14.10;94345.00;;;;7400535;19;20156;-77
2023/09/02 01:03:52;;;;;;;2.47;1.95;;;;;14.10;94350.00;;;;7399477;19;20144;-78
2023/09/02 01:06:21;;;;;;;3.45;1.70;;;;;14.10;94348.00;;;;7400793;19;20668;-76
2023/09/02 01:08:57;;;;;;;2.03;1.70;;;;;14.10;94347.00;;;;7399629;19;20142;-76
2023/09/02 01:11:38;;;;;;;2.22;1.80;;;;;14.20;94341.00;;;;7399779;19;20608;-77
2023/09/02 01:14:14;;;;;;;3.17;2.00;;;;;14.20;94339.00;;;;7399734;19;20157;-80
2023/09/02 01:16:42;;;;;;;3.60;1.83;;;;;14.20;94347.00;;;;7399297;19;20137;-78
2023/09/02 01:19:18;;;;;;;2.33;1.75;;;;;14.20;94343.00;;;;7398829;19;20152;-78
2023/09/02 01:22:04;;;;;;;2.78;1.90;;;;;14.10;94349.00;;;;7399489;19;20149;-78
2023/09/02 01:25:02;;;;;;;6.43;2.35;;;;;14.10;94350.00;;;;7400510;19;20476;-78
2023/09/02 01:27:39;;;;;;;6.40;1.88;;;;;14.10;94350.00;;;;7399475;19;20147;-79
2023/09/02 01:30:27;;;;;;;4.68;2.00;;;;;14.10;94341.00;;;;7398230;19;20612;-78
2023/09/02 01:32:57;;;;;;;2.10;1.90;;;;;14.10;94353.00;;;;7399525;19;20224;-77
2023/09/02 01:35:34;;;;;;;2.53;1.83;;;;;13.90;94358.00;;;;7398950;19;20527;-78
2023/09/02 01:38:06;;;;;;;6.38;2.08;;;;;14.00;94347.00;;;;7399434;19;20611;-77
2023/09/02 01:40:48;;;;;;;5.30;1.65;;;;;14.00;94349.00;;;;7399715;19;20472;-78
2023/09/02 01:43:20;;;;;;;3.72;1.75;;;;;14.10;94347.00;;;;7400106;19;20132;-78
2023/09/02 01:45:56;;;;;;;3.22;1.80;;;;;14.00;94347.00;;;;7400385;19;20144;-79
2023/09/02 01:48:28;;;;;;;5.30;2.00;;;;;14.00;94346.00;;;;7400442;19;20588;-79
2023/09/02 01:51:03;;;;;;;3.42;2.00;;;;;13.90;94355.00;;;;7399316;19;20169;-79
2023/09/02 01:53:31;;;;;;;3.75;1.95;;;;;13.80;94358.00;;;;7399986;19;20310;-80
2023/09/02 01:56:05;;;;;;;3.50;2.05;;;;;13.90;94359.00;;;;7399078;19;20144;-79
2023/09/02 01:58:39;;;;;;;2.45;1.75;;;;;13.90;94353.00;;;;7399465;19;20149;-79
2023/09/02 02:01:09;;;;;;;3.72;1.88;;;;;14.00;94355.00;;;;7399049;19;20199;-80
2023/09/02 02:03:56;;;;;;;2.55;1.70;;;;;14.10;94359.00;;;;7398081;19;20128;-81
2023/09/02 02:06:24;;;;;;;3.40;1.80;;;;;14.10;94363.00;;;;7398565;19;20131;-78
2023/09/02 02:09:08;;;;;;;3.10;1.90;;;;;14.00;94361.00;;;;7396983;19;20220;-78
2023/09/02 02:11:51;;;;;;;4.55;1.88;;;;;13.90;94366.00;;;;7399164;19;20528;-78
2023/09/02 02:14:19;;;;;;;2.83;2.08;;;;;13.90;94367.00;;;;7396599;19;20211;-78
2023/09/02 02:16:55;;;;;;;3.35;1.90;;;;;13.90;94367.00;;;;7396198;19;20486;-77
2023/09/02 02:19:23;;;;;;;3.03;1.83;;;;;13.90;94373.00;;;;7397347;19;20145;-77
2023/09/02 02:21:58;;;;;;;6.97;2.30;;;;;14.10;94363.00;;;;7396247;19;20156;-77
2023/09/02 02:24:26;;;;;;;2.78;2.00;;;;;14.10;94367.00;;;;7396667;19;20146;-77
2023/09/02 02:27:00;;;;;;;3.80;1.92;;;;;14.10;94365.00;;;;7396946;19;20617;-78
2023/09/02 02:29:28;;;;;;;7.78;2.05;;;;;14.00;94361.00;;;;7394415;19;20157;-78
2023/09/02 02:32:08;;;;;;;3.15;2.17;;;;;13.90;94374.00;;;;7395739;19;20652;-77
2023/09/02 02:34:38;;;;;;;3.85;2.10;;;;;13.90;94368.00;;;;7396279;19;20149;-78
2023/09/02 02:37:12;;;;;;;2.40;1.90;;;;;13.90;94367.00;;;;7394958;19;20641;-78
2023/09/02 02:39:46;;;;;;;2.92;1.98;;;;;13.90;94376.00;;;;7396239;19;20532;-78
2023/09/02 02:42:18;;;;;;;2.35;1.83;;;;;13.90;94368.00;;;;7395405;19;20140;-77
2023/09/02 02:44:53;;;;;;;7.00;1.77;;;;;13.90;94360.00;;;;7394570;19;20616;-78
2023/09/02 02:47:28;;;;;;;4.30;1.90;;;;;13.80;94372.00;;;;7394733;19;20167;-78
2023/09/02 02:50:04;;;;;;;3.97;1.80;;;;;13.90;94372.00;;;;7395778;19;20133;-77
2023/09/02 02:52:32;;;;;;;6.40;2.00;;;;;13.90;94375.00;;;;7395049;19;20597;-78
2023/09/02 02:55:06;;;;;;;3.85;1.98;;;;;13.90;94366.00;;;;7394644;19;20604;-78
2023/09/02 02:57:34;;;;;;;3.95;1.90;;;;;13.80;94367.00;;;;7394640;19;20172;-78
2023/09/02 03:00:09;;;;;;;6.43;2.13;;;;;13.90;94362.00;;;;7394141;19;20600;-78
2023/09/02 03:02:43;;;;;;;2.58;1.80;;;;;13.90;94360.00;;;;7394068;19;20148;-78
2023/09/02 03:05:11;;;;;;;2.63;1.83;;;;;13.90;94359.00;;;;7395755;19;20141;-78
2023/09/02 03:07:45;;;;;;;3.15;1.98;;;;;13.80;94367.00;;;;7395131;19;20163;-78
2023/09/02 03:10:19;;;;;;;5.93;2.40;;;;;13.80;94372.00;;;;7393694;19;20501;-78
2023/09/02 03:13:00;;;;;;;4.95;2.05;;;;;13.90;94365.00;;;;7395656;19;20652;-78
2023/09/02 03:15:35;;;;;;;4.85;1.90;;;;;13.90;94374.00;;;;7394898;19;20152;-80
2023/09/02 03:18:11;;;;;;;5.07;2.08;;;;;13.90;94377.00;;;;7393674;19;20160;-81
2023/09/02 03:20:45;;;;;;;3.45;1.85;;;;;13.80;94377.00;;;;7394010;19;20729;-80
2023/09/02 03:23:19;;;;;;;4.75;2.10;;;;;13.70;94376.00;;;;7393571;19;20156;-80
2023/09/02 03:25:47;;;;;;;4.25;2.20;;;;;13.70;94372.00;;;;7392821;19;20137;-80
2023/09/02 03:28:21;;;;;;;2.30;1.83;;;;;13.70;94382.00;;;;7400077;19;20165;-79
2023/09/02 03:30:49;;;;;;;3.17;1.70;;;;;13.80;94379.00;;;;7398682;19;20156;-81
2023/09/02 03:33:27;;;;;;;4.28;2.28;;;;;13.80;94380.00;;;;7401363;19;20132;-79
2023/09/02 03:35:54;;;;;;;2.65;2.00;;;;;13.80;94377.00;;;;7402345;19;20165;-80
2023/09/02 03:38:29;;;;;;;4.07;2.17;;;;;13.70;94393.00;;;;7402896;19;20192;-79
2023/09/02 03:40:57;;;;;;;2.70;2.10;;;;;13.70;94384.00;;;;7402220;19;20151;-80
2023/09/02 03:43:31;;;;;;;5.72;2.30;;;;;13.60;94382.00;;;;7403405;19;20141;-80
2023/09/02 03:45:59;;;;;;;1.92;1.73;;;;;13.50;94378.00;;;;7400914;19;20615;-78
2023/09/02 03:48:34;;;;;;;4.60;2.08;;;;;13.50;94376.00;;;;7400564;19;20165;-80
2023/09/02 03:51:12;;;;;;;3.95;2.13;;;;;13.60;94375.00;;;;7400961;19;20177;-80
2023/09/02 03:53:47;;;;;;;6.57;2.28;;;;;13.60;94373.00;;;;7400854;19;20140;-78
2023/09/02 03:56:14;;;;;;;4.88;2.30;;;;;13.60;94380.00;;;;7402816;19;20129;-79
2023/09/02 03:58:49;;;;;;;3.10;2.80;;;;;13.70;94376.00;;;;7402666;19;20602;-78
2023/09/02 04:01:22;;;;;;;3.95;2.80;;;;;13.80;94381.00;;;;7402263;19;20612;-78
2023/09/02 04:03:57;;;;;;;4.97;2.45;;;;;13.70;94379.00;;;;7402110;19;20135;-78
2023/09/02 04:06:26;;;;;;;4.13;2.65;;;;;13.70;94381.00;;;;7401468;19;20192;-79
2023/09/02 04:09:07;;;;;;;4.75;2.50;;;;;13.60;94385.00;;;;7400250;19;20208;-79
2023/09/02 04:11:43;;;;;;;4.35;2.50;;;;;13.60;94380.00;;;;7397575;19;20908;-79
2023/09/02 04:14:18;;;;;;;3.45;2.70;;;;;13.60;94377.00;;;;7400319;19;20615;-79
2023/09/02 04:16:58;;;;;;;4.20;2.33;;;;;13.60;94383.00;;;;7402728;19;20149;-78
2023/09/02 04:19:26;;;;;;;4.28;2.40;;;;;13.50;94375.00;;;;7400800;19;20606;-79
2023/09/02 04:22:00;;;;;;;3.90;2.67;;;;;13.70;94372.00;;;;7400051;19;20137;-78
2023/09/02 04:24:34;;;;;;;4.13;2.85;;;;;13.70;94381.00;;;;7401848;19;20144;-79
2023/09/02 04:27:08;;;;;;;5.80;2.65;;;;;13.70;94382.00;;;;7399944;19;20626;-78
2023/09/02 04:29:35;;;;;;;5.22;3.08;;;;;13.80;94390.00;;;;7401132;19;20129;-78
2023/09/02 04:32:10;;;;;;;3.13;2.58;;;;;13.80;94384.00;;;;7402891;19;20120;-79
2023/09/02 04:34:46;;;;;;;5.82;2.83;;;;;13.90;94378.00;;;;7399062;19;20150;-78
2023/09/02 04:37:22;;;;;;;8.05;3.30;;;;;13.90;94384.00;;;;7400336;19;20164;-78
2023/09/02 04:39:49;;;;;;;4.38;2.75;;;;;13.80;94387.00;;;;7399766;19;20653;-80
2023/09/02 04:42:24;;;;;;;6.05;2.70;;;;;13.80;94382.00;;;;7399353;19;20152;-79
2023/09/02 04:44:52;;;;;;;5.70;2.90;;;;;13.80;94389.00;;;;7400385;19;20620;-79
2023/09/02 04:47:26;;;;;;;4.78;3.10;;;;;13.70;94388.00;;;;7401789;19;20132;-78
2023/09/02 04:49:56;;;;;;;4.60;2.90;;;;;13.80;94388.00;;;;7398829;19;20622;-78
2023/09/02 04:52:30;;;;;;;4.65;2.88;;;;;13.90;94390.00;;;;7400768;19;20616;-77
2023/09/02 04:55:05;;;;;;;3.80;3.00;;;;;13.90;94387.00;;;;7398570;19;20588;-79
2023/09/02 04:57:38;;;;;;;5.72;3.22;;;;;14.10;94391.00;;;;7398234;19;20243;-79
2023/09/02 05:00:14;;;;;;;6.10;3.05;;;;;14.10;94385.00;;;;7399450;19;20630;-79
2023/09/02 05:02:48;;;;;;;3.83;2.50;;;;;14.10;94385.00;;;;7397599;19;20133;-80
2023/09/02 05:05:23;;;;;;;11.15;3.10;;;;;14.10;94395.00;;;;7397340;19;20152;-78
2023/09/02 05:07:51;;;;;;;3.72;2.60;;;;;14.20;94398.00;;;;7398895;19;20506;-80
2023/09/02 05:10:26;;;;;;;4.88;2.75;;;;;14.20;94398.00;;;;7396931;19;20219;-78
2023/09/02 05:13:00;;;;;;;5.75;2.92;;;;;14.30;94396.00;;;;7398859;19;20599;-78
2023/09/02 05:15:30;;;;;;;3.25;2.90;;;;;14.50;94396.00;;;;7398971;19;20137;-78
2023/09/02 05:17:58;;;;;;;5.05;2.80;;;;;14.60;94395.00;;;;7397474;19;20149;-80
2023/09/02 05:20:32;;;;;;;4.75;3.13;;;;;14.60;94398.00;;;;7398501;19;20224;-78
2023/09/02 05:23:09;;;;;;;4.20;2.97;;;;;14.70;94399.00;;;;7399045;19;20167;-79
2023/09/02 05:25:36;;;;;;;5.15;2.80;;;;;14.80;94401.00;;;;7396973;19;20145;-79
2023/09/02 05:28:05;;;;;;;4.43;3.13;;;;;14.80;94397.00;;;;7398191;19;20144;-78
2023/09/02 05:30:39;;;;;;;3.53;2.30;;;;;14.80;94402.00;;;;7397241;19;20488;-78
2023/09/02 05:33:07;;;;;;;4.55;2.88;;;;;14.80;94359.00;;;;7396130;19;20271;-77
2023/09/02 05:35:42;;;;;;;3.40;2.55;;;;;14.90;94411.00;;;;7397963;19;20607;-77
2023/09/02 05:38:16;;;;;;;2.88;2.47;;;;;14.90;94412.00;;;;7397631;19;20144;-77
2023/09/02 05:40:50;;;;;;;3.42;2.70;;;;;15.00;94404.00;;;;7396847;19;20170;-77
2023/09/02 05:43:20;;;;;;;4.00;2.88;;;;;15.10;94418.00;;;;7386592;19;20418;-76
2023/09/02 05:45:57;;;;;;;5.97;2.80;;;;;15.20;94415.00;;;;7385200;19;20148;-75
2023/09/02 05:48:31;;;;;;;3.78;2.42;;;;;15.40;94425.00;;;;7385835;19;20459;-77
2023/09/02 05:50:59;;;;;;;3.28;2.53;;;;;15.50;94420.00;;;;7382262;19;20153;-76
2023/09/02 05:53:37;;;;;;;5.35;2.88;;;;;15.90;94423.00;;;;7388504;19;20152;-77
2023/09/02 05:56:10;;;;;;;3.83;2.80;;;;;16.20;94422.00;;;;7384873;19;20586;-79
2023/09/02 05:58:45;;;;;;;3.22;2.70;;;;;16.40;94421.00;;;;7384648;19;20648;-77
2023/09/02 06:01:12;;;;;;;5.53;2.58;;;;;16.50;94427.00;;;;7384721;19;20655;-77
2023/09/02 06:03:47;;;;;;;3.80;2.20;;;;;16.50;94428.00;;;;7385566;19;20148;-77
2023/09/02 06:06:15;;;;;;;3.85;2.35;;;;;16.50;94428.00;;;;7383619;19;20472;-78
2023/09/02 06:08:49;;;;;;;3.60;2.40;;;;;16.60;94424.00;;;;7386224;19;20508;-77
2023/09/02 06:11:31;;;;;;;3.38;2.08;;;;;16.80;94429.00;;;;7384323;19;20199;-77
2023/09/02 06:14:11;;;;;;;4.07;2.22;;;;;16.80;94433.00;;;;7385224;19;20506;-76
2023/09/02 06:16:39;;;;;;;5.40;2.17;;;;;16.80;94438.00;;;;7383500;19;20635;-77
2023/09/02 06:19:14;;;;;;;2.60;2.28;;;;;17.00;94424.00;;;;7385507;19;20469;-78
2023/09/02 06:21:51;;;;;;;3.50;2.10;;;;;17.10;94426.00;;;;7385315;19;20144;-77
2023/09/02 06:24:28;;;;;;;7.80;2.30;;;;;17.20;94421.00;;;;7383937;19;20128;-77
2023/09/02 06:27:06;;;;;;;3.35;1.90;;;;;17.30;94414.00;;;;7384794;19;20470;-76
2023/09/02 06:29:37;;;;;;;3.65;2.00;;;;;17.50;94415.00;;;;7384721;19;20180;-78
2023/09/02 06:32:11;;;;;;;5.45;2.05;;;;;17.50;94420.00;;;;7384270;19;20489;-78
2023/09/02 06:34:39;;;;;;;3.40;1.92;;;;;17.60;94424.00;;;;7383594;19;20232;-78
2023/09/02 06:37:32;;;;;;;4.03;1.85;;;;;17.70;94421.00;;;;7383665;19;20216;-77
2023/09/02 06:40:13;;;;;;;4.13;2.20;;;;;17.70;94426.00;;;;7383330;19;20152;-77
2023/09/02 06:42:47;;;;;;;2.22;1.80;;;;;17.90;94436.00;;;;7383681;19;20192;-77
2023/09/02 06:45:21;;;;;;;2.83;1.80;;;;;18.00;94440.00;;;;7385352;19;20204;-77
2023/09/02 06:47:55;;;;;;;2.45;2.05;;;;;18.30;94437.00;;;;7383062;19;20156;-76
2023/09/02 06:50:23;;;;;;;2.80;1.90;;;;;18.40;94436.00;;;;7384510;19;20139;-77
2023/09/02 06:52:57;;;;;;;2.15;1.77;;;;;18.60;94441.00;;;;7384355;19;20139;-77
2023/09/02 06:55:26;;;;;;;5.55;1.80;;;;;18.60;94447.00;;;;7383019;19;20133;-78
2023/09/02 06:58:01;;;;;;;3.05;2.03;;;;;18.80;94453.00;;;;7381649;19;20152;-76
2023/09/02 07:00:33;;;;;;;2.80;2.00;;;;;18.90;94442.00;;;;7383480;19;20166;-77
2023/09/02 07:03:08;;;;;;;3.30;1.95;;;;;18.90;94449.00;;;;7382386;19;20139;-77
2023/09/02 07:05:40;;;;;;;2.60;2.00;;;;;19.10;94452.00;;;;7382109;19;20190;-77
2023/09/02 07:08:21;;;;;;;2.90;2.08;;;;;19.30;94443.00;;;;7383048;19;20152;-78
2023/09/02 07:11:01;;;;;;;3.00;1.98;;;;;19.30;94451.00;;;;7381530;19;20176;-79
2023/09/02 07:13:28;;;;;;;2.20;1.80;;;;;19.50;94455.00;;;;7382120;19;20152;-78
2023/09/02 07:16:03;;;;;;;3.55;1.80;;;;;19.40;94453.00;;;;7381210;19;20207;-77
2023/09/02 07:18:32;;;;;;;2.58;1.80;;;;;19.70;94456.00;;;;7382241;19;20140;-77
2023/09/02 07:21:07;;;;;;;1.52;1.42;;;;;19.70;94463.00;;;;7383717;19;20163;-78
2023/09/02 07:23:35;;;;;;;2.63;1.70;;;;;19.90;94466.00;;;;7383255;19;20660;-77
2023/09/02 07:26:08;;;;;;;2.75;1.90;;;;;19.90;94474.00;;;;7382605;19;20562;-78
2023/09/02 07:28:37;;;;;;;2.65;2.00;;;;;20.00;94473.00;;;;7381721;19;20128;-78
2023/09/02 07:31:12;;;;;;;3.75;2.25;;;;;20.30;94477.00;;;;7380761;19;20152;-77
2023/09/02 07:33:40;;;;;;;2.45;1.80;;;;;20.40;94471.00;;;;7381659;19;20159;-77
2023/09/02 07:36:14;;;;;;;4.32;1.60;;;;;20.60;94466.00;;;;7381811;19;20148;-75
2023/09/02 07:38:48;;;;;;;2.28;1.77;;;;;20.70;94468.00;;;;7380363;19;20148;-76
2023/09/02 07:41:22;;;;;;;2.22;1.55;;;;;20.70;94471.00;;;;7379573;19;20133;-78
2023/09/02 07:43:50;;;;;;;2.00;1.80;;;;;20.90;94470.00;;;;7381754;19;20133;-76
2023/09/02 07:46:24;;;;;;;5.25;1.77;;;;;21.10;94475.00;;;;7381014;19;20616;-75
2023/09/02 07:48:52;;;;;;;2.85;1.90;;;;;21.40;94469.00;;;;7381085;19;20508;-78
2023/09/02 07:51:26;;;;;;;1.73;1.60;;;;;21.30;94477.00;;;;7381110;19;20128;-77
2023/09/02 07:53:54;;;;;;;2.72;1.83;;;;;21.20;94474.00;;;;7380344;19;20151;-78
2023/09/02 07:56:28;;;;;;;4.28;1.70;;;;;21.30;94475.00;;;;7381485;19;20155;-77
2023/09/02 07:59:05;;;;;;;5.00;1.80;;;;;21.30;94477.00;;;;7381721;19;20144;-77
2023/09/02 08:01:39;;;;;;;4.47;1.70;;;;;21.40;94476.00;;;;7360831;19;20523;-74
2023/09/02 08:04:07;;;;;;;2.42;1.52;;;;;21.70;94492.00;;;;7377647;19;20145;-77
2023/09/02 08:06:36;;;;;;;3.97;1.80;;;;;21.70;94487.00;;;;7379839;19;20161;-76
2023/09/02 08:09:09;;;;;;;2.13;1.50;;;;;21.50;94487.00;;;;7382512;19;20135;-77
2023/09/02 08:11:50;;;;;;;1.95;1.70;;;;;21.90;94497.00;;;;7380532;19;20220;-76
2023/09/02 08:14:18;;;;;;;1.65;1.50;;;;;22.00;94490.00;;;;7384653;19;20143;-76
2023/09/02 08:16:52;;;;;;;2.13;1.70;;;;;21.80;94489.00;;;;7386478;19;20152;-75
2023/09/02 08:19:29;;;;;;;4.07;1.70;;;;;21.90;94479.00;;;;7385593;19;20133;-77
2023/09/02 08:22:04;;;;;;;4.28;1.73;;;;;22.30;94487.00;;;;7386373;19;20936;-77
2023/09/02 08:24:37;;;;;;;1.73;1.50;;;;;22.30;94498.00;;;;7386801;19;20129;-77
2023/09/02 08:27:09;;;;;;;6.35;1.85;;;;;22.60;94490.00;;;;7386874;19;20125;-75
2023/09/02 08:29:44;;;;;;;3.33;1.67;;;;;22.60;94485.00;;;;7386255;19;20151;-75
2023/09/02 08:32:18;;;;;;;2.33;1.60;;;;;22.60;94485.00;;;;7385712;19;20144;-76
2023/09/02 08:34:46;;;;;;;3.08;1.58;;;;;22.70;94484.00;;;;7388991;19;20129;-78
2023/09/02 08:37:20;;;;;;;3.00;1.60;;;;;22.70;94482.00;;;;7386870;19;20144;-76
2023/09/02 08:39:50;;;;;;;3.17;1.80;;;;;22.80;94482.00;;;;7385208;19;20172;-74
2023/09/02 08:42:26;;;;;;;1.88;1.42;;;;;22.80;94485.00;;;;7386533;19;20164;-75
2023/09/02 08:44:55;;;;;;;3.20;1.60;;;;;22.90;94493.00;;;;7386709;19;20196;-77
2023/09/02 08:47:33;;;;;;;2.50;1.65;;;;;23.30;94491.00;;;;7385847;19;20176;-77
2023/09/02 08:50:09;;;;;;;2.33;1.73;;;;;23.50;94493.00;;;;7385048;19;20136;-76
2023/09/02 08:52:40;;;;;;;2.35;1.55;;;;;23.60;94493.00;;;;7386019;19;20153;-75
2023/09/02 08:55:15;;;;;;;2.20;1.50;;;;;23.40;94493.00;;;;7386492;19;20129;-77
2023/09/02 08:57:43;;;;;;;3.47;1.80;;;;;23.60;94500.00;;;;7387167;19;20153;-75
2023/09/02 09:00:19;;;;;;;1.80;1.70;;;;;23.80;94507.00;;;;7387131;19;20152;-75
2023/09/02 09:02:47;;;;;;;3.20;2.05;;;;;24.00;94504.00;;;;7388760;19;20153;-74
2023/09/02 09:05:23;;;;;;;4.03;1.98;;;;;24.20;94508.00;;;;7386344;19;20607;-74
2023/09/02 09:07:59;;;;;;;1.88;1.60;;;;;24.10;94515.00;;;;7385575;19;20754;-76
2023/09/02 09:10:43;;;;;;;5.28;1.80;;;;;24.30;94511.00;;;;7384997;19;20176;-77
2023/09/02 09:13:26;;;;;;;1.88;1.30;;;;;24.40;94514.00;;;;7385135;19;20149;-74
2023/09/02 09:16:03;;;;;;;2.60;1.60;;;;;24.70;94511.00;;;;7386232;19;20572;-76
2023/09/02 09:18:37;;;;;;;2.50;1.60;;;;;24.60;94516.00;;;;7386166;19;20171;-76
2023/09/02 09:21:11;;;;;;;1.73;1.52;;;;;24.80;94519.00;;;;7385819;19;20220;-74
2023/09/02 09:23:39;;;;;;;2.53;1.63;;;;;24.80;94515.00;;;;7386005;19;20129;-76
2023/09/02 09:26:14;;;;;;;3.00;1.70;;;;;25.00;94513.00;;;;7380902;19;20169;-77
2023/09/02 09:28:52;;;;;;;1.83;1.50;;;;;25.10;94517.00;;;;7384829;19;20125;-76
2023/09/02 09:31:28;;;;;;;2.17;1.70;;;;;25.40;94513.00;;;;7385612;19;20149;-77
2023/09/02 09:34:02;;;;;;;1.73;1.63;;;;;25.20;94509.00;;;;7385531;19;20155;-75
2023/09/02 09:36:37;;;;;;;2.17;1.60;;;;;25.70;94500.00;;;;7384934;19;20152;-78
2023/09/02 09:39:11;;;;;;;1.83;1.73;;;;;25.40;94516.00;;;;7387567;19;20133;-78
2023/09/02 09:41:47;;;;;;;3.80;1.65;;;;;25.20;94533.00;;;;7388001;19;20141;-77
2023/09/02 09:44:22;;;;;;;3.78;1.73;;;;;24.70;94528.00;;;;7387319;19;20648;-76
2023/09/02 09:46:57;;;;;;;2.55;1.77;;;;;24.50;94524.00;;;;7384682;19;20528;-77
2023/09/02 09:49:27;;;;;;;4.32;1.73;;;;;24.70;94509.00;;;;7387693;19;20200;-74
2023/09/02 09:52:01;;;;;;;2.20;2.00;;;;;24.90;94500.00;;;;7385706;19;20183;-76
2023/09/02 09:54:39;;;;;;;2.28;1.50;;;;;25.30;94507.00;;;;7386025;19;20128;-76
2023/09/02 09:57:31;;;;;;;2.03;1.50;;;;;26.00;94504.00;;;;7387055;19;20128;-76
2023/09/02 10:00:07;;;;;;;2.05;1.63;;;;;26.40;94509.00;;;;7384120;19;20152;-75
2023/09/02 10:02:50;;;;;;;5.55;1.77;;;;;26.60;94509.00;;;;7386154;19;20156;-77
2023/09/02 10:05:27;;;;;;;3.63;1.50;;;;;26.70;94508.00;;;;7388191;19;20136;-77
2023/09/02 10:08:02;;;;;;;1.77;1.40;;;;;27.10;94505.00;;;;7385351;19;20272;-76
2023/09/02 10:10:45;;;;;;;1.70;1.60;;;;;27.00;94517.00;;;;7384255;19;20616;-78
2023/09/02 10:13:21;;;;;;;3.30;1.40;;;;;27.30;94510.00;;;;7385804;19;20125;-80
2023/09/02 10:15:56;;;;;;;2.40;1.40;;;;;27.30;94510.00;;;;7387513;19;20133;-78
2023/09/02 10:18:25;;;;;;;2.75;1.30;;;;;27.70;94504.00;;;;7384623;19;20141;-77
2023/09/02 10:21:02;;;;;;;1.92;1.35;;;;;27.50;94529.00;;;;7387266;19;20588;-78
2023/09/02 10:23:30;;;;;;;1.98;1.48;;;;;26.80;94526.00;;;;7386433;19;20664;-77
2023/09/02 10:26:06;;;;;;;2.30;1.48;;;;;27.30;94509.00;;;;7384718;19;20266;-78
2023/09/02 10:28:38;;;;;;;2.60;1.60;;;;;28.00;94508.00;;;;7384997;19;20733;-75
2023/09/02 10:31:22;;;;;;;2.67;1.52;;;;;28.40;94514.00;;;;7386714;19;20163;-78
2023/09/02 10:34:12;;;;;;;1.80;1.70;;;;;28.20;94515.00;;;;7386163;19;20156;-76
2023/09/02 10:36:57;;;;;;;2.90;1.70;;;;;28.40;94512.00;;;;7385047;19;20161;-78
2023/09/02 10:39:48;;;;;;;1.58;1.48;;;;;28.00;94514.00;;;;7385810;19;20125;-77
2023/09/02 10:42:24;;;;;;;2.72;1.60;;;;;28.20;94526.00;;;;7383925;19;20129;-79
2023/09/02 10:44:59;;;;;;;2.92;1.70;;;;;28.40;94519.00;;;;7386208;19;20132;-78
2023/09/02 10:47:33;;;;;;;1.70;1.60;;;;;28.80;94516.00;;;;7385978;19;20621;-76
2023/09/02 10:50:09;;;;;;;1.65;1.55;;;;;29.00;94527.00;;;;7384847;19;20168;-75
2023/09/02 10:52:44;;;;;;;1.95;1.58;;;;;28.50;94517.00;;;;7382293;19;20132;-76
2023/09/02 10:55:59;;;;;;;3.72;1.80;;;;;28.80;94520.00;;;;7381766;19;20650;-79
2023/09/02 10:58:27;;;;;;;2.40;1.92;;;;;29.10;94499.00;;;;7382789;19;20642;-77
2023/09/02 11:01:03;;;;;;;2.58;1.58;;;;;29.30;94524.00;;;;7383425;19;20614;-78
2023/09/02 11:03:47;;;;;;;2.17;1.52;;;;;28.90;94518.00;;;;7386043;19;20128;-79
2023/09/02 11:06:21;;;;;;;4.68;1.95;;;;;28.60;94520.00;;;;7382578;19;20152;-76
2023/09/02 11:08:52;;;;;;;2.50;1.77;;;;;29.20;94516.00;;;;7382768;19;20144;-77
2023/09/02 11:12:27;;;;;;;2.92;1.77;;;;;28.90;94516.00;;;;7383297;19;20180;-76
2023/09/02 11:15:11;;;;;;;3.78;1.80;;;;;29.50;94510.00;;;;7383996;19;20131;-77
2023/09/02 11:17:46;;;;;;;4.30;1.70;;;;;29.90;94509.00;;;;7383487;19;20156;-76
2023/09/02 11:20:19;;;;;;;2.15;1.73;;;;;29.50;94504.00;;;;7383311;19;20159;-76
2023/09/02 11:22:56;;;;;;;2.08;1.80;;;;;29.30;94509.00;;;;7383897;19;20613;-78
2023/09/02 11:25:25;;;;;;;1.95;1.60;;;;;29.30;94530.00;;;;7384692;19;21561;-78
2023/09/02 11:28:01;;;;;;;2.85;1.70;;;;;29.60;94498.00;;;;7384001;19;20713;-78
2023/09/02 11:30:30;;;;;;;1.67;1.58;;;;;29.80;94517.00;;;;7385508;19;20132;-78
2023/09/02 11:32:59;;;;;;;2.17;1.60;;;;;30.00;94511.00;;;;7381823;19;20196;-77
2023/09/02 11:35:36;;;;;;;4.55;1.75;;;;;30.20;94513.00;;;;7382822;19;20177;-76
2023/09/02 11:38:19;;;;;;;2.25;1.80;;;;;29.10;94544.00;;;;7385243;19;20203;-77
2023/09/02 11:40:54;;;;;;;1.98;1.77;;;;;28.30;94517.00;;;;7382441;19;20476;-75
2023/09/02 11:43:21;;;;;;;2.10;1.90;;;;;29.00;94538.00;;;;7380693;19;20148;-77
2023/09/02 11:45:56;;;;;;;5.47;1.70;;;;;28.90;94543.00;;;;7385004;19;20136;-79
2023/09/02 11:48:28;;;;;;;1.90;1.65;;;;;28.80;94551.00;;;;7384552;19;20156;-77
2023/09/02 11:51:03;;;;;;;1.85;1.75;;;;;28.00;94565.00;;;;7390069;19;20629;-77
2023/09/02 11:53:37;;;;;;;5.07;1.98;;;;;27.50;94578.00;;;;7389897;19;20136;-78
2023/09/02 11:56:14;;;;;;;3.10;1.85;;;;;26.30;94590.00;;;;7389203;19;20151;-77
2023/09/02 11:58:42;;;;;;;2.00;1.80;;;;;25.40;94594.00;;;;7390369;19;20133;-77
2023/09/02 12:01:16;;;;;;;2.35;1.88;;;;;24.80;94590.00;;;;7386969;19;20200;-76
2023/09/02 12:03:49;;;;;;;2.20;1.98;;;;;24.40;94589.00;;;;7388509;19;20623;-77
2023/09/02 12:06:27;;;;;;;2.30;1.70;;;;;23.70;94594.00;;;;7388819;19;20140;-78
2023/09/02 12:08:56;;;;;;;2.47;2.00;;;;;23.50;94597.00;;;;7386530;19;24027;-77
2023/09/02 12:11:30;;;;;;;2.28;2.03;;;;;23.60;94570.00;;;;7387967;19;20212;-75
2023/09/02 12:14:10;;;;;;;2.58;1.63;;;;;25.60;94572.00;;;;7390163;19;20140;-78
2023/09/02 12:16:46;;;;;;;2.70;1.63;;;;;27.00;94565.00;;;;7387060;19;20599;-76
2023/09/02 12:19:16;;;;;;;2.55;1.88;;;;;28.00;94556.00;;;;7388064;19;20138;-77
2023/09/02 12:21:51;;;;;;;1.80;1.52;;;;;28.70;94554.00;;;;7387778;19;20144;-77
2023/09/02 12:24:27;;;;;;;2.33;1.75;;;;;29.10;94557.00;;;;7388440;19;20162;-78
2023/09/02 12:27:00;;;;;;;2.33;1.92;;;;;28.60;94586.00;;;;7386736;19;20156;-78
2023/09/02 12:29:28;;;;;;;2.60;1.83;;;;;27.60;94582.00;;;;7388496;19;20148;-77
2023/09/02 12:32:00;;;;;;;5.55;2.10;;;;;26.40;94591.00;;;;7388635;19;20644;-76
2023/09/02 12:34:40;;;;;;;1.88;1.77;;;;;25.50;94602.00;;;;7387309;19;20484;-78
2023/09/02 12:37:20;;;;;;;5.00;2.17;;;;;24.80;94601.00;;;;7387520;19;20153;-77
2023/09/02 12:40:07;;;;;;;2.75;1.80;;;;;24.70;94606.00;;;;7390746;19;20585;-78
2023/09/02 12:42:52;;;;;;;1.90;1.70;;;;;24.70;94603.00;;;;7390864;19;20129;-78
2023/09/02 12:45:43;;;;;;;2.03;1.75;;;;;24.50;94612.00;;;;7389102;19;20128;-77
2023/09/02 12:48:17;;;;;;;2.10;1.83;;;;;24.80;94574.00;;;;7389842;19;20149;-77
2023/09/02 12:50:52;;;;;;;2.78;1.90;;;;;26.80;94577.00;;;;7389625;19;20133;-78
2023/09/02 12:53:20;;;;;;;3.58;1.95;;;;;28.50;94578.00;;;;7388197;19;20613;-78